createdAt,value
2022-11-27T06:21:47.771Z,101502.25
2022-11-27T06:24:51.433Z,101492.41
2022-11-27T06:27:54.202Z,101493.19
2022-11-27T06:31:20.144Z,101486.09
2022-11-27T06:34:23.230Z,101491.03
2022-11-27T06:38:26.394Z,101494.56
2022-11-27T06:41:29.261Z,101501.87
2022-11-27T06:44:32.213Z,101496.78
2022-11-27T06:47:58.635Z,101501.06
2022-11-27T06:51:03.410Z,101500.06
2022-11-27T06:54:06.124Z,101503.56
2022-11-27T06:57:09.281Z,101496.72
2022-11-27T07:00:12.437Z,101504.41
2022-11-27T07:03:15.621Z,101497.00
2022-11-27T07:06:22.176Z,101494.03
2022-11-27T07:09:25.476Z,101502.97
2022-11-27T07:12:28.143Z,101504.66
2022-11-27T07:15:32.814Z,101509.31
2022-11-27T07:18:37.896Z,101515.66
2022-11-27T07:21:41.044Z,101510.88
2022-11-27T07:24:43.605Z,101510.75
2022-11-27T07:27:49.297Z,101515.66
2022-11-27T07:30:58.583Z,101520.38
2022-11-27T07:34:01.622Z,101514.25
2022-11-27T07:37:04.372Z,101502.34
2022-11-27T07:40:07.960Z,101505.56
2022-11-27T07:43:10.700Z,101501.37
2022-11-27T07:46:19.693Z,101508.09
2022-11-27T07:49:22.283Z,101505.25
2022-11-27T07:52:25.408Z,101511.41
2022-11-27T07:55:28.086Z,101516.06
2022-11-27T07:58:31.397Z,101511.19
2022-11-27T08:01:34.116Z,101521.31
2022-11-27T08:04:37.135Z,101521.34
2022-11-27T08:07:40.184Z,101521.34
2022-11-27T08:10:43.647Z,101525.59
2022-11-27T08:13:46.658Z,101532.72
2022-11-27T08:16:49.656Z,101531.50
2022-11-27T08:19:52.569Z,101535.13
2022-11-27T08:22:59.638Z,101536.56
2022-11-27T08:26:09.570Z,101532.34
2022-11-27T08:29:12.647Z,101533.12
2022-11-27T08:32:15.584Z,101538.00
2022-11-27T08:35:18.874Z,101533.16
2022-11-27T08:38:22.088Z,101538.00
2022-11-27T08:41:25.269Z,101536.38
2022-11-27T08:44:28.254Z,101543.69
2022-11-27T08:47:33.193Z,101556.69
2022-11-27T08:50:37.952Z,101560.56
2022-11-27T08:53:41.223Z,101556.28
2022-11-27T08:56:43.905Z,101557.09
2022-11-27T08:59:46.896Z,101567.06
2022-11-27T09:02:49.610Z,101561.56
2022-11-27T09:05:52.596Z,101567.06
2022-11-27T09:08:57.124Z,101567.88
2022-11-27T09:12:00.445Z,101554.25
2022-11-27T09:15:04.817Z,101560.97
2022-11-27T09:18:07.940Z,101558.94
2022-11-27T09:21:12.684Z,101555.87
2022-11-27T09:24:15.646Z,101558.09
2022-11-27T09:27:18.420Z,101555.06
2022-11-27T09:30:21.589Z,101556.28
2022-11-27T09:33:47.203Z,101560.94
2022-11-27T09:36:52.961Z,101555.87
2022-11-27T09:39:55.859Z,101557.06
2022-11-27T09:43:10.139Z,101564.75
2022-11-27T09:46:17.640Z,101555.78
2022-11-27T09:49:37.855Z,101560.91
2022-11-27T09:53:17.997Z,101555.59
2022-11-27T09:56:21.064Z,101555.19
2022-11-27T09:59:49.115Z,101553.53
2022-11-27T10:02:52.586Z,101540.50
2022-11-27T10:06:24.325Z,101539.31
2022-11-27T10:13:18.774Z,101534.09
2022-11-27T10:16:44.907Z,101525.50
2022-11-27T10:20:11.818Z,101530.84
2022-11-27T10:23:44.028Z,101525.72
2022-11-27T10:26:49.077Z,101514.38
2022-11-27T10:29:54.705Z,101516.16
2022-11-27T10:33:00.337Z,101508.84
2022-11-27T10:36:03.183Z,101507.44
2022-11-27T10:39:25.127Z,101504.00
2022-11-27T10:42:40.990Z,101504.63
2022-11-27T10:45:54.619Z,101501.94
2022-11-27T10:48:58.313Z,101491.06
2022-11-27T10:52:01.391Z,101494.72
2022-11-27T10:55:19.044Z,101499.56
2022-11-27T10:58:32.976Z,101485.63
2022-11-27T11:01:45.070Z,101477.81
2022-11-27T11:05:03.251Z,101481.16
2022-11-27T11:08:21.120Z,101474.88
2022-11-27T11:11:27.750Z,101469.25
2022-11-27T11:14:30.432Z,101457.31
2022-11-27T11:17:34.869Z,101466.75
2022-11-27T11:20:38.346Z,101460.34
2022-11-27T11:23:42.284Z,101464.06
2022-11-27T11:26:51.392Z,101459.63
2022-11-27T11:30:01.214Z,101457.06
2022-11-27T11:33:04.602Z,101460.53
2022-11-27T11:36:10.801Z,101460.94
2022-11-27T11:39:24.816Z,101456.28
2022-11-27T11:42:33.828Z,101447.13
2022-11-27T11:45:46.881Z,101442.75
2022-11-27T11:49:23.300Z,101442.31
2022-11-27T11:52:59.454Z,101434.91
2022-11-27T11:56:17.948Z,101441.81
2022-11-27T12:00:07.366Z,101443.44
2022-11-27T12:03:12.295Z,101436.91
2022-11-27T12:06:21.156Z,101433.44
2022-11-27T12:09:51.450Z,101430.31
2022-11-27T12:13:22.851Z,101443.59
2022-11-27T12:16:29.221Z,101436.81
2022-11-27T12:19:56.893Z,101423.84
2022-11-27T12:23:18.796Z,101430.81
2022-11-27T12:26:43.467Z,101429.31
2022-11-27T12:29:52.325Z,101424.34
2022-11-27T12:33:10.361Z,101417.25
2022-11-27T12:37:02.376Z,101413.59
2022-11-27T12:40:27.026Z,101408.06
2022-11-27T12:43:45.054Z,101411.19
2022-11-27T12:47:09.669Z,101405.09
2022-11-27T12:50:40.602Z,101402.38
2022-11-27T12:54:11.503Z,101406.13
2022-11-27T12:57:23.401Z,101407.06
2022-11-27T13:00:48.306Z,101401.25
2022-11-27T13:04:15.806Z,101393.81
2022-11-27T13:07:24.655Z,101393.41
2022-11-27T13:10:34.835Z,101390.41
2022-11-27T13:13:43.674Z,101378.56
2022-11-27T13:16:58.624Z,101391.31
2022-11-27T13:20:04.051Z,101379.28
2022-11-27T13:23:07.404Z,101377.97
2022-11-27T13:26:26.589Z,101377.94
2022-11-27T13:30:00.997Z,101381.75
2022-11-27T13:33:06.458Z,101388.22
2022-11-27T13:36:23.770Z,101385.44
2022-11-27T13:39:39.068Z,101389.37
2022-11-27T13:42:46.703Z,101385.28
2022-11-27T13:45:51.828Z,101386.47
2022-11-27T13:49:02.735Z,101393.03
2022-11-27T13:52:19.741Z,101384.69
2022-11-27T13:55:27.445Z,101380.78
2022-11-27T13:58:41.920Z,101385.13
2022-11-27T14:02:05.316Z,101384.34
2022-11-27T14:05:55.141Z,101384.41
2022-11-27T14:09:03.689Z,101388.47
2022-11-27T14:12:20.997Z,101387.09
2022-11-27T14:15:28.114Z,101381.97
2022-11-27T14:18:31.477Z,101389.87
2022-11-27T14:21:39.420Z,101387.44
2022-11-27T14:24:46.010Z,101376.72
2022-11-27T14:28:04.363Z,101380.16
2022-11-27T14:31:27.630Z,101372.91
2022-11-27T14:34:53.366Z,101380.97
2022-11-27T14:38:09.314Z,101375.31
2022-11-27T14:41:32.119Z,101373.31
2022-11-27T14:44:35.383Z,101374.59
2022-11-27T14:47:50.089Z,101379.84
2022-11-27T14:51:21.086Z,101377.84
2022-11-27T14:54:30.653Z,101380.25
2022-11-27T14:57:33.792Z,101391.88
2022-11-27T15:01:10.911Z,101389.66
2022-11-27T15:04:37.468Z,101387.16
2022-11-27T15:07:50.827Z,101401.78
2022-11-27T15:10:58.576Z,101407.56
2022-11-27T15:14:03.645Z,101403.72
2022-11-27T15:17:06.791Z,101416.16
2022-11-27T15:20:23.561Z,101414.53
2022-11-27T15:23:30.261Z,101403.56
2022-11-27T15:26:37.832Z,101411.28
2022-11-27T15:29:44.308Z,101408.47
2022-11-27T15:32:52.915Z,101411.75
2022-11-27T15:36:21.245Z,101411.38
2022-11-27T15:39:47.207Z,101403.81
2022-11-27T15:42:50.280Z,101401.66
2022-11-27T15:45:53.655Z,101404.84
2022-11-27T15:48:57.140Z,101406.19
2022-11-27T15:52:00.108Z,101405.69
2022-11-27T15:55:03.160Z,101403.25
2022-11-27T15:58:05.913Z,101401.53
2022-11-27T16:01:10.228Z,101396.44
2022-11-27T16:04:13.308Z,101394.50
2022-11-27T16:07:16.583Z,101397.25
2022-11-27T16:10:19.653Z,101390.13
2022-11-27T16:13:22.283Z,101383.16
2022-11-27T16:16:25.518Z,101386.94
2022-11-27T16:19:28.763Z,101382.19
2022-11-27T16:22:34.274Z,101388.09
2022-11-27T16:25:40.436Z,101376.75
2022-11-27T16:28:43.678Z,101382.47
2022-11-27T16:31:46.784Z,101371.00
2022-11-27T16:34:55.457Z,101372.28
2022-11-27T16:37:58.273Z,101375.81
2022-11-27T16:41:03.794Z,101366.59
2022-11-27T16:44:12.101Z,101368.81
2022-11-27T16:47:20.647Z,101368.38
2022-11-27T16:50:37.842Z,101361.28
2022-11-27T16:53:44.043Z,101362.78
2022-11-27T16:56:47.069Z,101368.06
2022-11-27T16:59:50.911Z,101366.19
2022-11-27T17:02:54.594Z,101362.94
2022-11-27T17:05:58.735Z,101353.19
2022-11-27T17:09:03.579Z,101358.34
2022-11-27T17:12:06.959Z,101357.25
2022-11-27T17:15:10.456Z,101354.16
2022-11-27T17:18:13.807Z,101356.06
2022-11-27T17:21:21.188Z,101345.09
2022-11-27T17:24:25.903Z,101351.31
2022-11-27T17:27:28.947Z,101351.22
2022-11-27T17:30:36.465Z,101344.88
2022-11-27T17:33:42.483Z,101339.44
2022-11-27T17:36:46.285Z,101332.56
2022-11-27T17:39:49.187Z,101333.72
2022-11-27T17:42:52.446Z,101338.66
2022-11-27T17:45:55.116Z,101327.88
2022-11-27T17:49:00.836Z,101325.53
2022-11-27T17:52:06.539Z,101325.72
2022-11-27T17:55:10.754Z,101329.00
2022-11-27T17:58:13.905Z,101319.19
2022-11-27T18:01:23.006Z,101330.00
2022-11-27T18:04:26.365Z,101318.63
2022-11-27T18:07:29.298Z,101314.19
2022-11-27T18:11:06.422Z,101315.69
2022-11-27T18:14:13.531Z,101313.44
2022-11-27T18:17:17.442Z,101315.31
2022-11-27T18:20:20.674Z,101323.19
2022-11-27T18:23:23.762Z,101320.72
2022-11-27T18:26:45.500Z,101317.91
2022-11-27T18:29:50.274Z,101313.84
2022-11-27T18:32:53.252Z,101312.50
2022-11-27T18:35:56.121Z,101302.47
2022-11-27T18:39:01.473Z,101304.19
2022-11-27T18:42:06.483Z,101301.91
2022-11-27T18:45:25.383Z,101307.56
2022-11-27T18:48:35.111Z,101306.38
2022-11-27T18:51:37.827Z,101305.97
2022-11-27T18:54:41.215Z,101302.72
2022-11-27T18:57:44.088Z,101303.09
2022-11-27T19:01:35.449Z,101300.31
2022-11-27T19:04:43.172Z,101299.06
2022-11-27T19:07:47.201Z,101307.56
2022-11-27T19:10:50.361Z,101312.69
2022-11-27T19:13:55.651Z,101313.44
2022-11-27T19:17:03.887Z,101301.87
2022-11-27T19:20:08.282Z,101307.16
2022-11-27T19:23:11.547Z,101304.34
2022-11-27T19:26:39.632Z,101309.78
2022-11-27T19:29:46.396Z,101307.19
2022-11-27T19:32:49.717Z,101311.97
2022-11-27T19:35:52.588Z,101303.94
2022-11-27T19:39:05.019Z,101310.59
2022-11-27T19:42:07.925Z,101311.00
2022-11-27T19:45:11.060Z,101301.91
2022-11-27T19:48:16.505Z,101303.38
2022-11-27T19:51:21.841Z,101300.22
2022-11-27T19:54:24.602Z,101300.41
2022-11-27T19:57:28.398Z,101292.75
2022-11-27T20:00:31.474Z,101287.03
2022-11-27T20:03:34.693Z,101303.50
2022-11-27T20:06:41.212Z,101295.78
2022-11-27T20:09:44.425Z,101291.50
2022-11-27T20:12:47.116Z,101287.34
2022-11-27T20:15:50.049Z,101281.28
2022-11-27T20:18:53.336Z,101274.50
2022-11-27T20:21:56.712Z,101274.97
2022-11-27T20:25:18.471Z,101277.81
2022-11-27T20:28:23.269Z,101264.19
2022-11-27T20:31:34.405Z,101268.88
2022-11-27T20:34:37.849Z,101268.84
2022-11-27T20:37:40.844Z,101275.34
2022-11-27T20:40:44.616Z,101272.66
2022-11-27T20:43:48.359Z,101272.38
2022-11-27T20:46:51.584Z,101264.94
2022-11-27T20:49:54.827Z,101263.09
2022-11-27T20:52:58.554Z,101263.00
2022-11-27T20:56:02.937Z,101270.91
2022-11-27T20:59:07.965Z,101263.91
2022-11-27T21:02:13.248Z,101269.06
2022-11-27T21:05:16.641Z,101269.06
2022-11-27T21:08:19.838Z,101265.97
2022-11-27T21:11:26.351Z,101261.97
2022-11-27T21:14:29.039Z,101252.59
2022-11-27T21:17:32.285Z,101260.13
2022-11-27T21:20:36.817Z,101262.16
2022-11-27T21:23:41.829Z,101262.38
2022-11-27T21:26:45.291Z,101256.87
2022-11-27T21:29:49.576Z,101259.72
2022-11-27T21:32:52.415Z,101256.03
2022-11-27T21:35:56.148Z,101253.84
2022-11-27T21:39:02.320Z,101248.91
2022-11-27T21:42:05.527Z,101250.59
2022-11-27T21:45:26.478Z,101250.16
2022-11-27T21:48:30.613Z,101249.50
2022-11-27T21:51:33.487Z,101251.75
2022-11-27T21:54:39.232Z,101247.78
2022-11-27T21:57:42.243Z,101238.50
2022-11-27T22:00:45.387Z,101245.62
2022-11-27T22:03:51.498Z,101244.41
2022-11-27T22:06:54.368Z,101247.88
2022-11-27T22:09:57.725Z,101247.81
2022-11-27T22:13:00.420Z,101248.28
2022-11-27T22:16:09.603Z,101236.94
2022-11-27T22:19:12.512Z,101240.19
2022-11-27T22:22:15.541Z,101244.03
2022-11-27T22:25:18.378Z,101245.94
2022-11-27T22:28:21.482Z,101242.44
2022-11-27T22:31:29.697Z,101245.53
2022-11-27T22:34:33.304Z,101239.59
2022-11-27T22:37:36.118Z,101235.59
2022-11-27T22:40:39.550Z,101230.94
2022-11-27T22:43:43.362Z,101232.28
2022-11-27T22:46:47.040Z,101233.28
2022-11-27T22:49:50.241Z,101226.37
2022-11-27T22:52:58.032Z,101225.34
2022-11-27T22:56:08.812Z,101218.00
2022-11-27T23:02:38.163Z,101218.31
2022-11-27T23:05:45.296Z,101205.56
2022-11-27T23:08:50.021Z,101193.75
2022-11-27T23:11:54.106Z,101193.78
2022-11-27T23:14:56.854Z,101193.37
2022-11-27T23:17:59.846Z,101200.69
2022-11-27T23:21:11.798Z,101184.84
2022-11-27T23:24:17.486Z,101183.91
2022-11-27T23:27:20.449Z,101179.63
2022-11-27T23:30:26.019Z,101179.19
2022-11-27T23:33:28.941Z,101172.09
2022-11-27T23:36:32.626Z,101167.97
2022-11-27T23:39:35.267Z,101166.72
2022-11-27T23:42:38.321Z,101160.31
2022-11-27T23:45:41.060Z,101148.31
2022-11-27T23:48:45.374Z,101152.22
2022-11-27T23:51:48.352Z,101148.34
2022-11-27T23:54:51.410Z,101155.06
2022-11-27T23:57:54.045Z,101158.84
